createdAt,value
2022-08-02T00:02:40.927Z,87.23
2022-08-02T00:05:23.108Z,87.16
2022-08-02T00:08:12.253Z,87.40
2022-08-02T00:10:53.060Z,87.67
2022-08-02T00:13:39.883Z,88.36
2022-08-02T00:16:21.323Z,88.30
2022-08-02T00:19:26.405Z,88.35
2022-08-02T00:22:07.136Z,87.78
2022-08-02T00:25:00.887Z,87.59
2022-08-02T00:27:49.477Z,87.90
2022-08-02T00:30:31.042Z,87.27
2022-08-02T00:34:05.257Z,87.57
2022-08-02T00:36:23.897Z,87.94
2022-08-02T00:39:34.601Z,88.42
2022-08-02T00:42:13.155Z,88.63
2022-08-02T00:45:03.046Z,88.59
2022-08-02T00:47:43.899Z,88.72
2022-08-02T00:50:33.644Z,88.68
2022-08-02T00:53:17.911Z,88.77
2022-08-02T00:56:07.098Z,88.17
2022-08-02T00:58:48.301Z,87.90
2022-08-02T01:01:38.726Z,87.59
2022-08-02T01:04:38.938Z,87.45
2022-08-02T01:07:27.087Z,87.86
2022-08-02T01:10:07.935Z,88.29
2022-08-02T01:12:55.187Z,87.55
2022-08-02T01:15:36.851Z,87.41
2022-08-02T01:18:58.021Z,87.84
2022-08-02T01:21:46.331Z,88.28
2022-08-02T01:25:03.907Z,89.07
2022-08-02T01:28:29.035Z,88.76
2022-08-02T01:31:36.025Z,88.58
2022-08-02T01:34:49.287Z,88.70
2022-08-02T01:37:49.584Z,88.73
2022-08-02T01:40:38.292Z,89.24
2022-08-02T01:43:20.040Z,89.54
2022-08-02T01:46:08.318Z,90.05
2022-08-02T01:48:52.716Z,89.52
2022-08-02T01:52:00.948Z,89.90
2022-08-02T01:54:44.030Z,88.82
2022-08-02T01:57:33.730Z,88.27
2022-08-02T02:00:24.853Z,88.90
2022-08-02T02:03:16.951Z,89.52
2022-08-02T02:06:02.061Z,90.16
2022-08-02T02:08:50.953Z,90.53
2022-08-02T02:12:09.654Z,90.49
2022-08-02T02:14:41.941Z,90.09
2022-08-02T02:17:52.922Z,90.09
2022-08-02T02:20:43.689Z,90.17
2022-08-02T02:23:27.193Z,90.66
2022-08-02T02:26:31.329Z,91.45
2022-08-02T02:29:21.083Z,90.62
2022-08-02T02:32:04.106Z,91.20
2022-08-02T02:34:58.439Z,90.55
2022-08-02T02:37:41.476Z,90.22
2022-08-02T02:40:31.135Z,90.85
2022-08-02T02:43:14.947Z,90.25
2022-08-02T02:46:05.036Z,90.05
2022-08-02T02:48:47.740Z,90.02
2022-08-02T02:51:36.061Z,89.95
2022-08-02T02:54:32.083Z,90.50
2022-08-02T02:57:24.499Z,91.48
2022-08-02T03:00:06.927Z,90.51
2022-08-02T03:02:54.099Z,91.44
2022-08-02T03:05:35.360Z,91.85
2022-08-02T03:08:22.167Z,91.87
2022-08-02T03:11:04.494Z,92.33
2022-08-02T03:13:53.836Z,91.36
2022-08-02T03:16:36.369Z,91.70
2022-08-02T03:19:25.125Z,92.22
2022-08-02T03:22:15.589Z,91.74
2022-08-02T03:25:08.966Z,92.74
2022-08-02T03:27:59.544Z,93.90
2022-08-02T03:30:41.756Z,93.87
2022-08-02T03:33:31.404Z,94.77
2022-08-02T03:36:20.085Z,95.82
2022-08-02T03:39:08.982Z,97.33
2022-08-02T03:41:51.193Z,97.65
2022-08-02T03:44:39.993Z,97.98
2022-08-02T03:47:21.134Z,97.86
2022-08-02T03:50:09.372Z,98.22
2022-08-02T03:52:53.580Z,97.97
2022-08-02T03:55:44.059Z,97.78
2022-08-02T03:58:27.138Z,97.61
2022-08-02T04:01:14.138Z,97.70
2022-08-02T04:03:55.930Z,97.44
2022-08-02T04:06:47.043Z,97.55
2022-08-02T04:09:28.114Z,95.50
2022-08-02T04:12:15.797Z,94.92
2022-08-02T04:14:58.189Z,95.13
2022-08-02T04:17:51.394Z,95.34
2022-08-02T04:20:36.204Z,95.62
2022-08-02T04:23:26.920Z,96.53
2022-08-02T04:26:19.061Z,97.44
2022-08-02T04:29:08.417Z,97.86
2022-08-02T04:31:59.172Z,98.81
2022-08-02T04:34:41.098Z,98.65
2022-08-02T04:37:28.537Z,98.33
2022-08-02T04:40:09.425Z,96.70
2022-08-02T04:42:57.211Z,96.81
2022-08-02T04:45:38.811Z,96.50
2022-08-02T04:48:28.452Z,97.55
2022-08-02T04:51:09.037Z,98.26
2022-08-02T04:53:56.161Z,98.25
2022-08-02T04:56:51.394Z,98.45
2022-08-02T04:59:39.210Z,99.25
2022-08-02T05:02:23.038Z,99.38
2022-08-02T05:05:11.159Z,94.88
2022-08-02T05:07:52.821Z,90.92
2022-08-02T05:10:43.507Z,86.10
2022-08-02T05:13:24.051Z,82.52
2022-08-02T05:16:13.238Z,77.82
2022-08-02T05:18:54.073Z,74.11
2022-08-02T05:21:42.318Z,70.11
2022-08-02T05:24:23.079Z,66.24
2022-08-02T05:27:16.446Z,63.24
2022-08-02T05:30:02.949Z,61.59
2022-08-02T05:32:57.767Z,58.47
2022-08-02T05:35:38.472Z,56.50
2022-08-02T05:38:26.426Z,55.32
2022-08-02T05:41:08.180Z,54.21
2022-08-02T05:43:56.653Z,51.11
2022-08-02T05:46:38.060Z,48.97
2022-08-02T05:49:32.191Z,47.19
2022-08-02T05:52:25.264Z,45.98
2022-08-02T05:55:18.391Z,45.56
2022-08-02T05:58:31.110Z,45.72
2022-08-02T06:01:24.243Z,45.66
2022-08-02T06:04:07.088Z,45.34
2022-08-02T06:07:07.419Z,44.41
2022-08-02T06:09:50.092Z,44.33
2022-08-02T06:12:46.810Z,43.74
2022-08-02T06:15:28.103Z,42.31
2022-08-02T06:18:16.615Z,40.96
2022-08-02T06:20:58.083Z,39.59
2022-08-02T06:23:58.694Z,38.66
2022-08-02T06:26:55.255Z,37.84
2022-08-02T06:29:44.440Z,37.65
2022-08-02T06:32:27.387Z,37.21
2022-08-02T06:35:17.205Z,36.19
2022-08-02T06:37:59.977Z,34.96
2022-08-02T06:41:13.802Z,33.42
2022-08-02T06:44:41.998Z,32.23
2022-08-02T06:47:15.199Z,31.90
2022-08-02T06:49:56.597Z,31.23
2022-08-02T06:52:46.532Z,30.39
2022-08-02T06:55:27.503Z,30.25
2022-08-02T06:58:15.243Z,30.45
2022-08-02T07:00:58.116Z,30.01
2022-08-02T07:03:48.252Z,30.29
2022-08-02T07:06:30.337Z,29.79
2022-08-02T07:09:21.612Z,29.99
2022-08-02T07:12:05.383Z,29.32
2022-08-02T07:14:54.160Z,29.53
2022-08-02T07:17:36.880Z,29.22
2022-08-02T07:20:24.326Z,29.69
2022-08-02T07:23:06.540Z,29.41
2022-08-02T07:26:05.359Z,28.85
2022-08-02T07:28:54.393Z,29.22
2022-08-02T07:31:36.313Z,28.37
2022-08-02T07:34:24.371Z,29.06
2022-08-02T07:37:12.518Z,29.41
2022-08-02T07:40:20.352Z,29.22
2022-08-02T07:43:04.227Z,29.49
2022-08-02T07:45:55.867Z,29.38
2022-08-02T07:48:42.763Z,29.23
2022-08-02T07:51:31.149Z,29.21
2022-08-02T07:54:12.281Z,30.01
2022-08-02T07:57:07.176Z,30.57
2022-08-02T07:59:50.829Z,31.13
2022-08-02T08:02:39.373Z,31.56
2022-08-02T08:05:21.259Z,32.66
2022-08-02T08:08:15.068Z,32.09
2022-08-02T08:10:59.196Z,31.94
2022-08-02T08:13:50.018Z,31.57
2022-08-02T08:16:31.280Z,32.13
2022-08-02T08:19:18.930Z,32.29
2022-08-02T08:22:01.865Z,32.13
2022-08-02T08:24:49.049Z,30.96
2022-08-02T08:27:38.300Z,30.12
2022-08-02T08:30:19.557Z,29.56
2022-08-02T08:33:08.327Z,29.64
2022-08-02T08:35:50.380Z,30.40
2022-08-02T08:38:40.276Z,31.13
2022-08-02T08:41:23.212Z,31.54
2022-08-02T08:44:11.699Z,31.43
2022-08-02T08:46:55.966Z,30.35
2022-08-02T08:49:52.658Z,29.58
2022-08-02T08:52:34.975Z,28.82
2022-08-02T08:55:25.540Z,28.66
2022-08-02T08:58:09.542Z,28.63
2022-08-02T09:00:57.373Z,29.63
2022-08-02T09:03:38.968Z,29.69
2022-08-02T09:06:32.389Z,29.73
2022-08-02T09:09:14.332Z,30.13
2022-08-02T09:12:01.347Z,30.33
2022-08-02T09:14:42.223Z,30.47
2022-08-02T09:17:30.348Z,30.64
2022-08-02T09:20:15.649Z,30.23
2022-08-02T09:23:18.846Z,30.71
2022-08-02T09:26:19.600Z,30.34
2022-08-02T09:29:11.276Z,29.88
2022-08-02T09:31:53.340Z,29.59
2022-08-02T09:35:00.509Z,30.06
2022-08-02T09:37:42.833Z,30.28
2022-08-02T09:40:42.617Z,30.04
2022-08-02T09:43:24.231Z,31.03
2022-08-02T09:46:25.488Z,31.24
2022-08-02T09:49:22.330Z,31.94
2022-08-02T09:52:11.587Z,32.54
2022-08-02T09:54:52.999Z,33.58
2022-08-02T09:57:40.383Z,34.35
2022-08-02T10:00:37.013Z,35.00
2022-08-02T10:03:35.062Z,34.68
2022-08-02T10:06:17.363Z,34.23
2022-08-02T10:09:06.411Z,34.08
2022-08-02T10:11:47.268Z,33.57
2022-08-02T10:14:35.614Z,33.46
2022-08-02T10:17:22.245Z,33.28
2022-08-02T10:20:11.401Z,32.49
2022-08-02T10:22:52.430Z,32.59
2022-08-02T10:25:45.423Z,32.62
2022-08-02T10:28:38.247Z,32.85
2022-08-02T10:31:22.407Z,33.05
2022-08-02T10:34:17.404Z,33.58
2022-08-02T10:37:01.342Z,34.25
2022-08-02T10:39:52.825Z,35.59
2022-08-02T10:42:54.473Z,37.64
2022-08-02T10:49:43.683Z,39.11
2022-08-02T10:52:36.279Z,40.26
2022-08-02T10:55:22.134Z,41.61
2022-08-02T10:58:35.194Z,41.75
2022-08-02T11:01:52.165Z,40.84
2022-08-02T11:04:52.546Z,39.20
2022-08-02T11:07:50.378Z,39.23
2022-08-02T11:10:46.271Z,38.70
2022-08-02T11:13:28.624Z,38.60
2022-08-02T11:16:17.838Z,37.88
2022-08-02T11:18:58.381Z,37.33
2022-08-02T11:21:48.523Z,35.98
2022-08-02T11:24:37.446Z,35.33
2022-08-02T11:27:27.293Z,35.04
2022-08-02T11:30:19.489Z,34.75
2022-08-02T11:33:13.317Z,34.49
2022-08-02T11:35:57.555Z,34.68
2022-08-02T11:38:44.312Z,34.60
2022-08-02T11:41:45.888Z,34.28
2022-08-02T11:44:36.318Z,34.42
2022-08-02T11:47:20.071Z,34.66
2022-08-02T11:50:17.168Z,34.75
2022-08-02T11:52:59.419Z,34.19
2022-08-02T11:55:46.334Z,34.06
2022-08-02T11:58:27.564Z,33.72
2022-08-02T12:01:16.327Z,33.75
2022-08-02T12:04:03.509Z,34.61
2022-08-02T12:06:51.070Z,34.94
2022-08-02T12:09:40.736Z,35.04
2022-08-02T12:12:30.237Z,35.29
2022-08-02T12:15:11.444Z,34.87
2022-08-02T12:18:18.326Z,34.41
2022-08-02T12:21:02.588Z,34.72
2022-08-02T12:23:59.812Z,34.73
2022-08-02T12:26:59.309Z,33.98
2022-08-02T12:29:55.885Z,34.13
2022-08-02T12:32:40.988Z,33.29
2022-08-02T12:35:28.338Z,33.61
2022-08-02T12:38:17.419Z,33.73
2022-08-02T12:41:30.230Z,34.01
2022-08-02T12:44:12.746Z,34.16
2022-08-02T12:47:12.352Z,33.91
2022-08-02T12:49:53.460Z,33.31
2022-08-02T12:52:41.455Z,32.75
2022-08-02T12:56:02.544Z,32.53
2022-08-02T12:58:56.736Z,32.16
2022-08-02T13:01:37.512Z,33.09
2022-08-02T13:04:25.842Z,32.86
2022-08-02T13:07:07.330Z,32.51
2022-08-02T13:10:02.671Z,32.94
2022-08-02T13:12:44.462Z,33.13
2022-08-02T13:15:49.898Z,33.20
2022-08-02T13:18:33.257Z,33.39
2022-08-02T13:21:40.752Z,33.19
2022-08-02T13:24:38.693Z,33.59
2022-08-02T13:27:36.484Z,33.81
2022-08-02T13:30:24.501Z,34.12
2022-08-02T13:33:05.770Z,33.95
2022-08-02T13:35:55.457Z,34.02
2022-08-02T13:38:36.369Z,33.89
2022-08-02T13:41:25.617Z,33.95
2022-08-02T13:44:10.514Z,33.91
2022-08-02T13:46:58.518Z,34.83
2022-08-02T13:49:51.197Z,34.72
2022-08-02T13:52:41.293Z,34.56
2022-08-02T13:55:25.762Z,34.30
2022-08-02T13:58:14.535Z,34.50
2022-08-02T14:00:55.395Z,34.85
2022-08-02T14:04:08.024Z,34.79
2022-08-02T14:06:44.444Z,34.95
2022-08-02T14:09:33.631Z,34.87
2022-08-02T14:12:17.601Z,35.39
2022-08-02T14:15:04.694Z,35.66
2022-08-02T14:17:46.425Z,35.58
2022-08-02T14:20:34.508Z,35.71
2022-08-02T14:23:15.791Z,36.23
2022-08-02T14:26:05.543Z,36.72
2022-08-02T14:28:53.265Z,35.98
2022-08-02T14:31:37.975Z,36.50
2022-08-02T14:34:31.298Z,36.16
2022-08-02T14:37:12.593Z,36.26
2022-08-02T14:40:01.201Z,35.75
2022-08-02T14:42:42.580Z,36.05
2022-08-02T14:45:39.992Z,36.44
2022-08-02T14:48:22.583Z,36.07
2022-08-02T14:51:10.543Z,36.31
2022-08-02T14:54:02.861Z,36.91
2022-08-02T14:56:57.441Z,37.34
2022-08-02T14:59:42.612Z,37.13
2022-08-02T15:02:29.407Z,37.16
2022-08-02T15:05:10.523Z,36.54
2022-08-02T15:07:59.422Z,36.48
2022-08-02T15:10:41.093Z,36.69
2022-08-02T15:13:27.416Z,36.90
2022-08-02T15:16:08.542Z,36.41
2022-08-02T15:18:55.445Z,36.77
2022-08-02T15:21:41.464Z,35.73
2022-08-02T15:24:29.437Z,35.88
2022-08-02T15:27:24.416Z,36.01
2022-08-02T15:30:15.442Z,36.06
2022-08-02T15:32:58.217Z,36.70
2022-08-02T15:35:46.506Z,37.10
2022-08-02T15:38:30.583Z,37.71
2022-08-02T15:41:20.817Z,37.21
2022-08-02T15:44:01.995Z,37.16
2022-08-02T15:46:48.464Z,37.33
2022-08-02T15:49:29.598Z,37.60
2022-08-02T15:52:18.612Z,36.94
2022-08-02T15:55:07.022Z,36.52
2022-08-02T15:57:55.456Z,36.62
2022-08-02T16:00:36.577Z,37.13
2022-08-02T16:03:25.833Z,36.90
2022-08-02T16:06:06.605Z,37.25
2022-08-02T16:08:56.356Z,36.64
2022-08-02T16:11:38.560Z,36.96
2022-08-02T16:14:28.243Z,36.95
2022-08-02T16:17:10.487Z,37.02
2022-08-02T16:19:57.942Z,36.48
2022-08-02T16:22:38.748Z,36.30
2022-08-02T16:25:29.310Z,36.85
2022-08-02T16:28:19.055Z,36.34
2022-08-02T16:31:10.360Z,36.96
2022-08-02T16:33:58.571Z,36.38
2022-08-02T16:36:39.852Z,36.97
2022-08-02T16:39:28.440Z,36.28
2022-08-02T16:42:12.000Z,36.54
2022-08-02T16:45:03.584Z,36.11
2022-08-02T16:47:57.478Z,36.41
2022-08-02T16:50:48.454Z,36.19
2022-08-02T16:53:37.174Z,36.08
2022-08-02T16:56:26.823Z,36.36
2022-08-02T16:59:07.510Z,36.54
2022-08-02T17:05:01.492Z,36.18
2022-08-02T17:08:15.237Z,36.06
2022-08-02T17:10:54.870Z,36.47
2022-08-02T17:13:43.783Z,36.05
2022-08-02T17:16:26.592Z,36.20
2022-08-02T17:19:14.595Z,35.66
2022-08-02T17:21:55.526Z,36.02
2022-08-02T17:24:46.016Z,35.74
2022-08-02T17:27:37.032Z,36.43
2022-08-02T17:30:26.936Z,36.47
2022-08-02T17:33:15.549Z,36.40
2022-08-02T17:35:58.475Z,36.20
2022-08-02T17:38:50.180Z,36.40
2022-08-02T17:44:43.033Z,36.00
2022-08-02T17:47:31.433Z,36.00
2022-08-02T17:50:32.288Z,36.22
2022-08-02T17:53:13.631Z,36.23
2022-08-02T17:56:01.534Z,35.71
2022-08-02T17:58:51.919Z,36.22
2022-08-02T18:01:52.942Z,36.20
2022-08-02T18:04:38.003Z,35.75
2022-08-02T18:07:25.555Z,35.78
2022-08-02T18:10:24.680Z,35.99
2022-08-02T18:13:13.920Z,36.39
2022-08-02T18:15:59.094Z,36.34
2022-08-02T18:18:47.941Z,36.33
2022-08-02T18:21:35.020Z,36.13
2022-08-02T18:24:24.068Z,36.25
2022-08-02T18:27:17.566Z,36.57
2022-08-02T18:30:07.549Z,36.84
2022-08-02T18:33:57.104Z,36.26
2022-08-02T18:35:55.945Z,36.53
2022-08-02T18:38:36.691Z,36.40
2022-08-02T18:41:24.941Z,36.62
2022-08-02T18:44:08.025Z,36.66
2022-08-02T18:46:56.957Z,37.10
2022-08-02T18:49:46.607Z,37.32
2022-08-02T18:52:47.567Z,37.75
2022-08-02T18:56:00.211Z,41.59
2022-08-02T18:58:46.972Z,43.06
2022-08-02T19:01:39.488Z,44.03
2022-08-02T19:04:29.579Z,45.11
2022-08-02T19:07:18.695Z,45.95
2022-08-02T19:10:04.606Z,46.72
2022-08-02T19:12:52.684Z,47.66
2022-08-02T19:15:35.563Z,48.82
2022-08-02T19:18:26.685Z,49.64
2022-08-02T19:21:07.595Z,50.37
2022-08-02T19:23:58.774Z,50.19
2022-08-02T19:26:39.988Z,50.15
2022-08-02T19:29:48.614Z,50.72
2022-08-02T19:32:42.620Z,52.76
2022-08-02T19:36:01.965Z,51.69
2022-08-02T19:38:43.998Z,51.11
2022-08-02T19:41:48.108Z,52.53
2022-08-02T19:44:33.641Z,51.84
2022-08-02T19:47:21.725Z,52.29
2022-08-02T19:50:02.740Z,52.22
2022-08-02T19:52:49.933Z,53.17
2022-08-02T19:56:01.623Z,52.68
2022-08-02T19:58:44.965Z,54.32
2022-08-02T20:01:37.330Z,56.01
2022-08-02T20:04:29.284Z,57.92
2022-08-02T20:07:11.630Z,56.08
2022-08-02T20:10:01.751Z,55.81
2022-08-02T20:12:46.651Z,54.39
2022-08-02T20:15:55.832Z,53.68
2022-08-02T20:18:38.636Z,54.94
2022-08-02T20:21:35.613Z,55.11
2022-08-02T20:24:20.036Z,55.78
2022-08-02T20:27:23.019Z,55.76
2022-08-02T20:30:11.726Z,55.06
2022-08-02T20:32:58.856Z,55.64
2022-08-02T20:36:02.415Z,54.94
2022-08-02T20:38:44.523Z,54.39
2022-08-02T20:41:37.184Z,54.91
2022-08-02T20:44:30.756Z,55.51
2022-08-02T20:47:19.647Z,56.48
2022-08-02T20:50:39.672Z,57.40
2022-08-02T20:53:29.969Z,57.43
2022-08-02T20:56:12.689Z,57.08
2022-08-02T20:59:03.665Z,57.95
2022-08-02T21:01:56.859Z,58.99
2022-08-02T21:04:52.772Z,59.21
2022-08-02T21:07:34.751Z,59.11
2022-08-02T21:10:25.773Z,60.56
2022-08-02T21:13:18.905Z,60.26
2022-08-02T21:16:16.340Z,61.30
2022-08-02T21:19:00.522Z,61.12
2022-08-02T21:21:49.791Z,62.64
2022-08-02T21:24:31.293Z,62.23
2022-08-02T21:27:52.131Z,62.24
2022-08-02T21:30:32.762Z,63.09
2022-08-02T21:33:17.886Z,63.77
2022-08-02T21:36:11.912Z,64.07
2022-08-02T21:38:57.684Z,65.01
2022-08-02T21:41:47.806Z,65.78
2022-08-02T21:44:29.587Z,66.97
2022-08-02T21:47:25.288Z,66.78
2022-08-02T21:50:13.686Z,67.68
2022-08-02T21:53:06.769Z,68.39
2022-08-02T21:56:02.493Z,69.04
2022-08-02T21:58:51.988Z,69.34
2022-08-02T22:01:34.271Z,69.90
2022-08-02T22:04:21.824Z,70.82
2022-08-02T22:07:02.926Z,70.74
2022-08-02T22:09:54.078Z,70.86
2022-08-02T22:12:36.701Z,71.76
2022-08-02T22:15:25.796Z,71.81
2022-08-02T22:18:17.068Z,72.46
2022-08-02T22:21:20.578Z,73.71
2022-08-02T22:24:04.108Z,74.54
2022-08-02T22:27:00.802Z,73.68
2022-08-02T22:29:50.686Z,74.07
2022-08-02T22:32:50.924Z,74.58
2022-08-02T22:35:39.775Z,75.13
2022-08-02T22:38:21.822Z,75.42
2022-08-02T22:41:13.941Z,75.42
2022-08-02T22:43:55.348Z,76.25
2022-08-02T22:46:43.087Z,76.24
2022-08-02T22:49:39.111Z,76.31
2022-08-02T22:52:30.780Z,77.26
2022-08-02T22:55:16.156Z,76.91
2022-08-02T22:58:06.106Z,77.77
2022-08-02T22:58:49.062Z,36.39
2022-08-02T22:58:49.595Z,36.23
2022-08-02T23:00:46.877Z,77.77
2022-08-02T23:03:34.109Z,78.64
2022-08-02T23:06:17.510Z,78.45
2022-08-02T23:09:05.054Z,78.84
2022-08-02T23:11:45.869Z,79.25
2022-08-02T23:14:36.178Z,79.40
2022-08-02T23:17:35.661Z,79.15
2022-08-02T23:20:24.507Z,78.77
2022-08-02T23:23:11.520Z,78.94
2022-08-02T23:25:59.727Z,78.98
2022-08-02T23:28:49.389Z,78.78
2022-08-02T23:31:41.787Z,79.29
2022-08-02T23:34:29.867Z,77.96
2022-08-02T23:37:11.734Z,78.64
2022-08-02T23:39:59.892Z,78.92
2022-08-02T23:42:41.519Z,79.40
2022-08-02T23:45:34.960Z,79.78
2022-08-02T23:48:19.537Z,79.72
2022-08-02T23:51:09.303Z,78.52
2022-08-02T23:53:57.495Z,79.65
2022-08-02T23:56:46.899Z,80.06
2022-08-02T23:59:27.743Z,81.22
